LHBC weather

Békéscsaba Airfield
Békéscsaba, Békés, Hungary

Public forecast

Using degrees Celsius for public forecast. Weather courtesy of forecast.io.

METAR (pilot weather report)

Retrieved 2019/08/23 11:45 UTC (35 minutes ago):

LHBC 231145Z 04007KT 9999 FEW050TCU BKN200 31/17 Q1022

TAF (pilot weather forecast)

Forecast is more than 12 hours old.

Closest forecast is Arad International Airport, 30.3 nm (56.1 km) S. Retrieved 2012/12/05 09:33 UTC (7 years ago):

TAF TAF LRAR 050800Z 0509/0521 VRB04KT 3000 -SN BR BKN005 OVC010 TEMPO 0509/0513 1500 SN BKN002 OVC005 BECMG 0513/0515 5000 -SN BKN010 OVC025